createdAt,value
2024-04-24T00:03:37.396Z,37.4136
2024-04-24T00:13:46.644Z,37.2253
2024-04-24T00:23:56.082Z,37.1794
2024-04-24T00:34:05.452Z,37.0678
2024-04-24T00:44:14.801Z,37.0542
2024-04-24T00:54:24.268Z,37.0289
2024-04-24T01:04:33.956Z,36.9658
2024-04-24T01:14:43.518Z,36.8281
2024-04-24T01:24:53.720Z,36.7053
2024-04-24T01:35:03.371Z,36.7114
2024-04-24T01:45:13.252Z,36.7772
2024-04-24T01:55:22.970Z,36.7575
2024-04-24T02:05:32.932Z,36.7178
2024-04-24T02:15:42.721Z,36.6456
2024-04-24T02:25:52.414Z,36.5975
2024-04-24T02:36:02.303Z,36.5347
2024-04-24T02:46:11.839Z,36.5339
2024-04-24T02:56:21.510Z,36.4611
2024-04-24T03:06:31.053Z,36.3311
2024-04-24T03:16:40.645Z,36.2486
2024-04-24T03:26:50.246Z,36.3200
2024-04-24T03:36:59.828Z,36.3442
2024-04-24T03:47:09.194Z,36.2961
2024-04-24T03:57:18.806Z,36.2211
2024-04-24T04:07:28.235Z,36.1831
2024-04-24T04:17:38.066Z,36.1656
2024-04-24T04:27:47.527Z,36.0889
2024-04-24T04:37:56.945Z,36.0750
2024-04-24T04:48:06.314Z,36.1106
2024-04-24T04:58:15.822Z,35.9703
2024-04-24T05:08:25.070Z,35.8903
2024-04-24T05:18:34.654Z,35.8714
2024-04-24T05:28:46.254Z,35.8228
2024-04-24T05:38:56.921Z,35.7894
2024-04-24T05:49:06.266Z,35.6153
2024-04-24T05:59:15.427Z,35.5650
2024-04-24T06:09:24.554Z,35.5700
2024-04-24T06:19:34.038Z,35.6014
2024-04-24T06:29:43.314Z,35.6828
2024-04-24T06:39:52.637Z,35.6947
2024-04-24T06:50:01.970Z,35.6694
2024-04-24T07:00:10.508Z,35.6669
2024-04-24T07:10:19.329Z,35.6614
2024-04-24T07:20:27.702Z,35.6633
2024-04-24T07:30:35.900Z,35.6492
2024-04-24T07:40:43.940Z,35.5978
2024-04-24T07:50:51.894Z,35.5467
2024-04-24T08:00:59.781Z,35.5347
2024-04-24T08:11:07.810Z,35.4881
2024-04-24T08:21:15.802Z,35.4728
2024-04-24T08:31:22.796Z,35.4689
2024-04-24T08:41:29.587Z,35.2500
2024-04-24T08:51:36.906Z,35.3294
2024-04-24T09:01:43.914Z,35.3639
2024-04-24T09:11:50.473Z,35.3575
2024-04-24T09:21:57.116Z,35.3281
2024-04-24T09:32:03.906Z,35.3294
2024-04-24T09:42:10.971Z,35.3092
2024-04-24T09:52:17.933Z,35.2800
2024-04-24T10:02:25.579Z,35.2306
2024-04-24T10:12:32.968Z,35.2200
2024-04-24T10:22:40.664Z,35.1789
2024-04-24T10:32:49.041Z,35.1711
2024-04-24T10:42:57.561Z,35.1128
2024-04-24T10:53:05.946Z,35.1008
2024-04-24T11:03:14.343Z,35.0814
2024-04-24T11:13:22.493Z,34.9381
2024-04-24T11:23:30.311Z,34.8636
2024-04-24T11:33:38.670Z,34.8961
2024-04-24T11:43:46.827Z,34.9492
2024-04-24T11:53:54.547Z,34.9603
2024-04-24T12:04:02.500Z,34.9464
2024-04-24T12:14:09.967Z,34.9153
2024-04-24T12:24:17.880Z,34.8856
2024-04-24T12:34:25.964Z,34.8589
2024-04-24T12:44:33.982Z,34.8408
2024-04-24T12:54:42.258Z,34.8186
2024-04-24T13:04:50.335Z,34.8075
2024-04-24T13:14:58.180Z,34.7764
2024-04-24T13:25:07.254Z,34.6772
2024-04-24T13:35:15.359Z,34.5767
2024-04-24T13:45:23.256Z,34.5556
2024-04-24T13:55:30.972Z,34.5294
2024-04-24T14:05:39.213Z,34.5086
2024-04-24T14:15:47.324Z,34.4944
2024-04-24T14:25:55.843Z,34.4806
2024-04-24T14:36:04.148Z,34.4703
2024-04-24T14:46:12.199Z,34.4608
2024-04-24T14:56:20.223Z,34.4514
2024-04-24T15:06:28.457Z,34.4458
2024-04-24T15:16:36.780Z,34.4394
2024-04-24T15:26:44.900Z,34.4286
2024-04-24T15:36:52.945Z,34.4100
2024-04-24T15:47:01.063Z,34.3922
2024-04-24T15:57:09.359Z,34.3794
2024-04-24T16:07:22.513Z,34.3639
2024-04-24T16:17:30.606Z,34.3511
2024-04-24T16:27:38.952Z,34.3314
2024-04-24T16:37:47.814Z,34.3053
2024-04-24T16:47:56.580Z,34.2881
2024-04-24T16:58:05.182Z,34.2628
2024-04-24T17:08:13.772Z,34.2422
2024-04-24T17:18:23.440Z,34.2308
2024-04-24T17:28:32.329Z,34.2283
2024-04-24T17:38:41.352Z,34.2117
2024-04-24T17:48:50.169Z,34.1944
2024-04-24T17:58:58.967Z,34.1742
2024-04-24T18:09:07.877Z,34.1572
2024-04-24T18:19:17.193Z,34.1275
2024-04-24T18:29:26.183Z,34.1097
2024-04-24T18:39:35.339Z,34.1011
2024-04-24T18:49:44.600Z,34.0928
2024-04-24T18:59:53.673Z,34.0842
2024-04-24T19:10:02.885Z,34.0750
2024-04-24T19:20:12.192Z,34.0656
2024-04-24T19:30:21.401Z,34.0578
2024-04-24T19:40:30.675Z,34.0450
2024-04-24T19:50:39.771Z,34.0278
2024-04-24T20:00:49.207Z,34.0158
2024-04-24T20:10:58.417Z,34.0094
2024-04-24T20:21:07.759Z,34.0025
2024-04-24T20:31:17.051Z,33.9956
2024-04-24T20:41:26.163Z,33.9875
2024-04-24T20:51:35.495Z,33.9772
2024-04-24T21:01:44.563Z,33.9575
2024-04-24T21:11:53.882Z,33.9539
2024-04-24T21:22:03.119Z,33.9497
2024-04-24T21:32:12.414Z,33.9378
2024-04-24T21:42:21.540Z,33.9256
2024-04-24T21:52:30.699Z,33.9194
2024-04-24T22:02:40.449Z,33.8953
2024-04-24T22:12:49.834Z,33.8761
2024-04-24T22:22:59.147Z,33.8717
2024-04-24T22:33:08.277Z,33.8653
2024-04-24T22:43:17.553Z,33.8594
2024-04-24T22:53:26.711Z,33.8539
2024-04-24T23:03:36.129Z,33.8500
2024-04-24T23:13:45.571Z,33.8439
2024-04-24T23:23:54.915Z,33.8414
2024-04-24T23:34:04.174Z,33.8367
2024-04-24T23:44:13.546Z,33.8328
2024-04-24T23:54:23.084Z,33.8358
